sensor_id;sensor_type;location;lat;lon;timestamp;temperature;humidity
20891;DHT22;10605;52.968;8.844;2022-08-24T00:01:05;20.50;99.90
20891;DHT22;10605;52.968;8.844;2022-08-24T00:03:32;20.40;99.90
20891;DHT22;10605;52.968;8.844;2022-08-24T00:05:58;20.30;99.90
20891;DHT22;10605;52.968;8.844;2022-08-24T00:08:24;20.30;99.90
20891;DHT22;10605;52.968;8.844;2022-08-24T00:10:50;20.30;99.90
20891;DHT22;10605;52.968;8.844;2022-08-24T00:13:15;20.30;99.90
20891;DHT22;10605;52.968;8.844;2022-08-24T00:15:41;20.20;99.90
20891;DHT22;10605;52.968;8.844;2022-08-24T00:18:07;20.20;99.90
20891;DHT22;10605;52.968;8.844;2022-08-24T00:20:33;20.20;99.90
20891;DHT22;10605;52.968;8.844;2022-08-24T00:22:59;20.10;99.90
20891;DHT22;10605;52.968;8.844;2022-08-24T00:25:25;20.20;99.90
20891;DHT22;10605;52.968;8.844;2022-08-24T00:27:51;20.10;99.90
20891;DHT22;10605;52.968;8.844;2022-08-24T00:30:18;20.20;99.90
20891;DHT22;10605;52.968;8.844;2022-08-24T00:32:45;20.10;99.90
20891;DHT22;10605;52.968;8.844;2022-08-24T00:35:13;20.10;99.90
20891;DHT22;10605;52.968;8.844;2022-08-24T00:37:39;20.00;99.90
20891;DHT22;10605;52.968;8.844;2022-08-24T00:40:09;20.00;99.90
20891;DHT22;10605;52.968;8.844;2022-08-24T00:42:37;20.00;99.90
20891;DHT22;10605;52.968;8.844;2022-08-24T00:45:05;20.00;99.90
20891;DHT22;10605;52.968;8.844;2022-08-24T00:47:51;19.90;99.90
20891;DHT22;10605;52.968;8.844;2022-08-24T00:50:24;19.90;99.90
20891;DHT22;10605;52.968;8.844;2022-08-24T00:53:01;19.90;99.90
20891;DHT22;10605;52.968;8.844;2022-08-24T00:55:34;19.80;99.90
20891;DHT22;10605;52.968;8.844;2022-08-24T00:58:04;19.70;99.90
20891;DHT22;10605;52.968;8.844;2022-08-24T01:00:39;19.70;99.90
20891;DHT22;10605;52.968;8.844;2022-08-24T01:03:06;19.70;99.90
20891;DHT22;10605;52.968;8.844;2022-08-24T01:05:33;19.60;99.90
20891;DHT22;10605;52.968;8.844;2022-08-24T01:08:01;19.50;99.90
20891;DHT22;10605;52.968;8.844;2022-08-24T01:10:30;19.40;99.90
20891;DHT22;10605;52.968;8.844;2022-08-24T01:13:01;19.40;99.90
20891;DHT22;10605;52.968;8.844;2022-08-24T01:15:35;19.40;99.90
20891;DHT22;10605;52.968;8.844;2022-08-24T01:18:02;19.50;99.90
20891;DHT22;10605;52.968;8.844;2022-08-24T01:21:14;19.50;99.90
20891;DHT22;10605;52.968;8.844;2022-08-24T01:23:51;19.50;99.90
20891;DHT22;10605;52.968;8.844;2022-08-24T01:26:40;19.40;99.90
20891;DHT22;10605;52.968;8.844;2022-08-24T01:29:13;19.50;99.90
20891;DHT22;10605;52.968;8.844;2022-08-24T01:31:40;19.40;99.90
20891;DHT22;10605;52.968;8.844;2022-08-24T01:34:06;19.50;99.90
20891;DHT22;10605;52.968;8.844;2022-08-24T01:37:10;19.50;99.90
20891;DHT22;10605;52.968;8.844;2022-08-24T01:39:31;19.50;99.90
20891;DHT22;10605;52.968;8.844;2022-08-24T01:41:58;19.50;99.90
20891;DHT22;10605;52.968;8.844;2022-08-24T01:44:27;19.50;99.90
20891;DHT22;10605;52.968;8.844;2022-08-24T01:46:54;19.40;99.90
20891;DHT22;10605;52.968;8.844;2022-08-24T01:49:23;19.40;99.90
20891;DHT22;10605;52.968;8.844;2022-08-24T01:51:49;19.30;99.90
20891;DHT22;10605;52.968;8.844;2022-08-24T01:54:15;19.20;99.90
20891;DHT22;10605;52.968;8.844;2022-08-24T01:56:44;19.20;99.90
20891;DHT22;10605;52.968;8.844;2022-08-24T01:59:10;19.20;99.90
20891;DHT22;10605;52.968;8.844;2022-08-24T02:01:39;19.10;99.90
20891;DHT22;10605;52.968;8.844;2022-08-24T02:04:06;19.10;99.90
20891;DHT22;10605;52.968;8.844;2022-08-24T02:06:33;19.00;99.90
20891;DHT22;10605;52.968;8.844;2022-08-24T02:08:59;19.00;99.90
20891;DHT22;10605;52.968;8.844;2022-08-24T02:11:25;18.90;99.90
20891;DHT22;10605;52.968;8.844;2022-08-24T02:13:51;18.90;99.90
20891;DHT22;10605;52.968;8.844;2022-08-24T02:16:17;18.80;99.90
20891;DHT22;10605;52.968;8.844;2022-08-24T02:18:43;18.80;99.90
20891;DHT22;10605;52.968;8.844;2022-08-24T02:21:10;18.70;99.90
20891;DHT22;10605;52.968;8.844;2022-08-24T02:23:37;18.70;99.90
20891;DHT22;10605;52.968;8.844;2022-08-24T02:26:05;18.60;99.90
20891;DHT22;10605;52.968;8.844;2022-08-24T02:28:31;18.60;99.90
20891;DHT22;10605;52.968;8.844;2022-08-24T02:30:57;18.50;99.90
20891;DHT22;10605;52.968;8.844;2022-08-24T02:33:23;18.50;99.90
20891;DHT22;10605;52.968;8.844;2022-08-24T02:35:49;18.50;99.90
20891;DHT22;10605;52.968;8.844;2022-08-24T02:38:15;18.60;99.90
20891;DHT22;10605;52.968;8.844;2022-08-24T02:40:41;18.50;99.90
20891;DHT22;10605;52.968;8.844;2022-08-24T02:43:07;18.40;99.90
20891;DHT22;10605;52.968;8.844;2022-08-24T02:45:38;18.30;99.90
20891;DHT22;10605;52.968;8.844;2022-08-24T02:48:03;18.30;99.90
20891;DHT22;10605;52.968;8.844;2022-08-24T02:50:30;18.20;99.90
20891;DHT22;10605;52.968;8.844;2022-08-24T02:52:55;18.20;99.90
20891;DHT22;10605;52.968;8.844;2022-08-24T02:55:21;18.20;99.90
20891;DHT22;10605;52.968;8.844;2022-08-24T02:57:47;18.20;99.90
20891;DHT22;10605;52.968;8.844;2022-08-24T03:00:16;18.10;99.90
20891;DHT22;10605;52.968;8.844;2022-08-24T03:02:43;18.00;99.90
20891;DHT22;10605;52.968;8.844;2022-08-24T03:05:10;18.10;99.90
20891;DHT22;10605;52.968;8.844;2022-08-24T03:07:36;18.00;99.90
20891;DHT22;10605;52.968;8.844;2022-08-24T03:10:03;18.00;99.90
20891;DHT22;10605;52.968;8.844;2022-08-24T03:12:29;18.10;99.90
20891;DHT22;10605;52.968;8.844;2022-08-24T03:14:55;18.00;99.90
20891;DHT22;10605;52.968;8.844;2022-08-24T03:17:21;18.00;99.90
20891;DHT22;10605;52.968;8.844;2022-08-24T03:19:48;18.00;99.90
20891;DHT22;10605;52.968;8.844;2022-08-24T03:22:14;18.00;99.90
20891;DHT22;10605;52.968;8.844;2022-08-24T03:24:39;18.00;99.90
20891;DHT22;10605;52.968;8.844;2022-08-24T03:27:05;18.10;99.90
20891;DHT22;10605;52.968;8.844;2022-08-24T03:29:31;18.10;99.90
20891;DHT22;10605;52.968;8.844;2022-08-24T03:31:59;18.10;99.90
20891;DHT22;10605;52.968;8.844;2022-08-24T03:34:25;18.10;99.90
20891;DHT22;10605;52.968;8.844;2022-08-24T03:36:51;18.10;99.90
20891;DHT22;10605;52.968;8.844;2022-08-24T03:39:16;18.10;99.90
20891;DHT22;10605;52.968;8.844;2022-08-24T03:41:42;18.20;99.90
20891;DHT22;10605;52.968;8.844;2022-08-24T03:44:08;18.10;99.90
20891;DHT22;10605;52.968;8.844;2022-08-24T03:46:36;18.00;99.90
20891;DHT22;10605;52.968;8.844;2022-08-24T03:49:07;18.10;99.90
20891;DHT22;10605;52.968;8.844;2022-08-24T03:51:34;18.10;99.90
20891;DHT22;10605;52.968;8.844;2022-08-24T03:54:02;18.00;99.90
20891;DHT22;10605;52.968;8.844;2022-08-24T03:56:28;18.00;99.90
20891;DHT22;10605;52.968;8.844;2022-08-24T03:58:54;18.10;99.90
20891;DHT22;10605;52.968;8.844;2022-08-24T04:01:20;18.00;99.90
20891;DHT22;10605;52.968;8.844;2022-08-24T04:03:47;18.10;99.90
20891;DHT22;10605;52.968;8.844;2022-08-24T04:06:16;18.10;99.90
20891;DHT22;10605;52.968;8.844;2022-08-24T04:08:42;18.20;99.90
20891;DHT22;10605;52.968;8.844;2022-08-24T04:11:13;18.20;99.90
20891;DHT22;10605;52.968;8.844;2022-08-24T04:13:40;18.20;99.90
20891;DHT22;10605;52.968;8.844;2022-08-24T04:16:10;18.30;99.90
20891;DHT22;10605;52.968;8.844;2022-08-24T04:18:38;18.20;99.90
20891;DHT22;10605;52.968;8.844;2022-08-24T04:21:04;18.20;99.90
20891;DHT22;10605;52.968;8.844;2022-08-24T04:23:31;18.20;99.90
20891;DHT22;10605;52.968;8.844;2022-08-24T04:26:02;18.20;99.90
20891;DHT22;10605;52.968;8.844;2022-08-24T04:28:29;18.20;99.90
20891;DHT22;10605;52.968;8.844;2022-08-24T04:30:57;18.20;99.90
20891;DHT22;10605;52.968;8.844;2022-08-24T04:33:25;18.20;99.90
20891;DHT22;10605;52.968;8.844;2022-08-24T04:35:50;18.20;99.90
20891;DHT22;10605;52.968;8.844;2022-08-24T04:38:17;18.20;99.90
20891;DHT22;10605;52.968;8.844;2022-08-24T04:40:44;18.20;99.90
20891;DHT22;10605;52.968;8.844;2022-08-24T04:43:13;18.30;99.90
20891;DHT22;10605;52.968;8.844;2022-08-24T04:45:41;18.30;99.90
20891;DHT22;10605;52.968;8.844;2022-08-24T04:48:08;18.40;99.90
20891;DHT22;10605;52.968;8.844;2022-08-24T04:50:36;18.40;99.90
20891;DHT22;10605;52.968;8.844;2022-08-24T04:53:02;18.50;99.90
20891;DHT22;10605;52.968;8.844;2022-08-24T04:55:28;18.60;99.90
20891;DHT22;10605;52.968;8.844;2022-08-24T04:58:01;18.70;99.90
20891;DHT22;10605;52.968;8.844;2022-08-24T05:00:26;18.70;99.90
20891;DHT22;10605;52.968;8.844;2022-08-24T05:02:52;18.90;99.90
20891;DHT22;10605;52.968;8.844;2022-08-24T05:05:18;19.00;99.90
20891;DHT22;10605;52.968;8.844;2022-08-24T05:07:43;19.30;99.90
20891;DHT22;10605;52.968;8.844;2022-08-24T05:10:09;19.60;99.90
20891;DHT22;10605;52.968;8.844;2022-08-24T05:12:38;19.60;99.90
20891;DHT22;10605;52.968;8.844;2022-08-24T05:15:04;19.90;99.90
20891;DHT22;10605;52.968;8.844;2022-08-24T05:17:30;20.10;99.90
20891;DHT22;10605;52.968;8.844;2022-08-24T05:19:57;19.90;99.90
20891;DHT22;10605;52.968;8.844;2022-08-24T05:22:23;20.30;99.90
20891;DHT22;10605;52.968;8.844;2022-08-24T05:24:49;20.70;99.90
20891;DHT22;10605;52.968;8.844;2022-08-24T05:27:15;20.90;99.90
20891;DHT22;10605;52.968;8.844;2022-08-24T05:29:40;21.30;99.90
20891;DHT22;10605;52.968;8.844;2022-08-24T05:32:06;21.70;99.90
20891;DHT22;10605;52.968;8.844;2022-08-24T05:34:32;22.10;99.90
20891;DHT22;10605;52.968;8.844;2022-08-24T05:36:57;22.30;99.90
20891;DHT22;10605;52.968;8.844;2022-08-24T05:39:23;22.50;99.90
20891;DHT22;10605;52.968;8.844;2022-08-24T05:41:49;22.90;99.90
20891;DHT22;10605;52.968;8.844;2022-08-24T05:44:16;23.00;99.90
20891;DHT22;10605;52.968;8.844;2022-08-24T05:46:42;23.00;99.90
20891;DHT22;10605;52.968;8.844;2022-08-24T05:49:08;23.10;99.90
20891;DHT22;10605;52.968;8.844;2022-08-24T05:51:35;23.40;99.90
20891;DHT22;10605;52.968;8.844;2022-08-24T05:54:03;23.40;99.90
20891;DHT22;10605;52.968;8.844;2022-08-24T05:56:30;22.60;99.90
20891;DHT22;10605;52.968;8.844;2022-08-24T05:58:58;22.10;99.90
20891;DHT22;10605;52.968;8.844;2022-08-24T06:01:26;21.80;99.90
20891;DHT22;10605;52.968;8.844;2022-08-24T06:03:55;21.70;99.90
20891;DHT22;10605;52.968;8.844;2022-08-24T06:06:22;21.70;99.90
20891;DHT22;10605;52.968;8.844;2022-08-24T06:08:51;21.50;99.90
20891;DHT22;10605;52.968;8.844;2022-08-24T06:11:36;21.70;99.90
20891;DHT22;10605;52.968;8.844;2022-08-24T06:14:09;22.80;99.90
20891;DHT22;10605;52.968;8.844;2022-08-24T06:16:37;22.90;99.90
20891;DHT22;10605;52.968;8.844;2022-08-24T06:19:04;22.60;99.90
20891;DHT22;10605;52.968;8.844;2022-08-24T06:21:31;22.10;99.90
20891;DHT22;10605;52.968;8.844;2022-08-24T06:23:58;22.30;99.90
20891;DHT22;10605;52.968;8.844;2022-08-24T06:26:27;22.40;99.90
20891;DHT22;10605;52.968;8.844;2022-08-24T06:29:12;23.20;99.90
20891;DHT22;10605;52.968;8.844;2022-08-24T06:31:42;23.60;99.90
20891;DHT22;10605;52.968;8.844;2022-08-24T06:34:17;24.50;99.90
20891;DHT22;10605;52.968;8.844;2022-08-24T06:36:44;25.30;99.90
20891;DHT22;10605;52.968;8.844;2022-08-24T06:39:12;25.90;99.90
20891;DHT22;10605;52.968;8.844;2022-08-24T06:41:39;25.20;99.90
20891;DHT22;10605;52.968;8.844;2022-08-24T06:44:06;25.30;99.90
20891;DHT22;10605;52.968;8.844;2022-08-24T06:46:32;25.00;99.90
20891;DHT22;10605;52.968;8.844;2022-08-24T06:49:00;24.90;99.90
20891;DHT22;10605;52.968;8.844;2022-08-24T06:51:28;24.10;99.90
20891;DHT22;10605;52.968;8.844;2022-08-24T06:53:56;23.70;99.90
20891;DHT22;10605;52.968;8.844;2022-08-24T06:56:22;23.80;99.90
20891;DHT22;10605;52.968;8.844;2022-08-24T06:58:47;24.60;99.90
20891;DHT22;10605;52.968;8.844;2022-08-24T07:01:16;25.80;99.90
20891;DHT22;10605;52.968;8.844;2022-08-24T07:03:43;26.30;99.90
20891;DHT22;10605;52.968;8.844;2022-08-24T07:06:10;26.30;99.90
20891;DHT22;10605;52.968;8.844;2022-08-24T07:08:37;27.80;99.90
20891;DHT22;10605;52.968;8.844;2022-08-24T07:11:04;28.30;99.90
20891;DHT22;10605;52.968;8.844;2022-08-24T07:13:31;27.40;99.90
20891;DHT22;10605;52.968;8.844;2022-08-24T07:15:57;28.10;99.10
20891;DHT22;10605;52.968;8.844;2022-08-24T07:18:23;29.00;98.30
20891;DHT22;10605;52.968;8.844;2022-08-24T07:20:49;28.70;98.10
20891;DHT22;10605;52.968;8.844;2022-08-24T07:23:16;29.00;95.70
20891;DHT22;10605;52.968;8.844;2022-08-24T07:25:43;29.50;93.80
20891;DHT22;10605;52.968;8.844;2022-08-24T07:28:09;29.80;92.90
20891;DHT22;10605;52.968;8.844;2022-08-24T07:30:36;30.70;91.60
20891;DHT22;10605;52.968;8.844;2022-08-24T07:33:05;30.20;90.10
20891;DHT22;10605;52.968;8.844;2022-08-24T07:35:31;30.60;89.00
20891;DHT22;10605;52.968;8.844;2022-08-24T07:37:58;30.90;87.60
20891;DHT22;10605;52.968;8.844;2022-08-24T07:40:28;30.30;85.20
20891;DHT22;10605;52.968;8.844;2022-08-24T07:42:55;31.10;85.80
20891;DHT22;10605;52.968;8.844;2022-08-24T07:45:23;30.60;83.80
20891;DHT22;10605;52.968;8.844;2022-08-24T07:47:50;30.10;84.20
20891;DHT22;10605;52.968;8.844;2022-08-24T07:50:16;29.70;83.60
20891;DHT22;10605;52.968;8.844;2022-08-24T07:52:43;30.00;82.90
20891;DHT22;10605;52.968;8.844;2022-08-24T07:55:10;30.10;85.90
20891;DHT22;10605;52.968;8.844;2022-08-24T07:57:37;30.80;85.00
20891;DHT22;10605;52.968;8.844;2022-08-24T08:00:07;30.80;83.00
20891;DHT22;10605;52.968;8.844;2022-08-24T08:02:36;32.10;80.00
20891;DHT22;10605;52.968;8.844;2022-08-24T08:05:03;31.80;78.40
20891;DHT22;10605;52.968;8.844;2022-08-24T08:07:29;31.70;77.90
20891;DHT22;10605;52.968;8.844;2022-08-24T08:09:55;31.30;76.70
20891;DHT22;10605;52.968;8.844;2022-08-24T08:12:24;32.10;76.30
20891;DHT22;10605;52.968;8.844;2022-08-24T08:14:50;31.90;74.40
20891;DHT22;10605;52.968;8.844;2022-08-24T08:17:15;31.20;73.30
20891;DHT22;10605;52.968;8.844;2022-08-24T08:19:41;31.70;72.70
20891;DHT22;10605;52.968;8.844;2022-08-24T08:22:09;32.20;72.90
20891;DHT22;10605;52.968;8.844;2022-08-24T08:24:53;32.30;70.20
20891;DHT22;10605;52.968;8.844;2022-08-24T08:27:19;32.40;69.30
20891;DHT22;10605;52.968;8.844;2022-08-24T08:29:46;32.80;69.10
20891;DHT22;10605;52.968;8.844;2022-08-24T08:32:16;33.50;66.90
20891;DHT22;10605;52.968;8.844;2022-08-24T08:34:45;33.00;68.60
20891;DHT22;10605;52.968;8.844;2022-08-24T08:37:12;33.40;63.30
20891;DHT22;10605;52.968;8.844;2022-08-24T08:39:39;34.00;63.80
20891;DHT22;10605;52.968;8.844;2022-08-24T09:09:29;36.40;50.90
20891;DHT22;10605;52.968;8.844;2022-08-24T09:12:41;36.70;50.00
20891;DHT22;10605;52.968;8.844;2022-08-24T09:18:07;37.00;47.80
20891;DHT22;10605;52.968;8.844;2022-08-24T09:26:37;36.70;45.20
20891;DHT22;10605;52.968;8.844;2022-08-24T09:29:38;37.10;46.50
20891;DHT22;10605;52.968;8.844;2022-08-24T09:35:09;37.80;45.40
20891;DHT22;10605;52.968;8.844;2022-08-24T09:37:57;38.30;44.40
20891;DHT22;10605;52.968;8.844;2022-08-24T09:40:43;37.50;41.90
20891;DHT22;10605;52.968;8.844;2022-08-24T09:43:52;37.20;42.20
20891;DHT22;10605;52.968;8.844;2022-08-24T09:46:35;37.10;41.30
20891;DHT22;10605;52.968;8.844;2022-08-24T10:00:33;38.40;39.70
20891;DHT22;10605;52.968;8.844;2022-08-24T10:05:55;39.00;39.70
20891;DHT22;10605;52.968;8.844;2022-08-24T10:08:39;39.80;38.40
20891;DHT22;10605;52.968;8.844;2022-08-24T10:19:26;39.30;32.70
20891;DHT22;10605;52.968;8.844;2022-08-24T10:22:05;39.70;33.40
20891;DHT22;10605;52.968;8.844;2022-08-24T10:24:56;40.00;32.70
20891;DHT22;10605;52.968;8.844;2022-08-24T10:27:49;39.80;32.30
20891;DHT22;10605;52.968;8.844;2022-08-24T10:30:44;41.30;32.10
20891;DHT22;10605;52.968;8.844;2022-08-24T10:42:21;39.20;30.50
20891;DHT22;10605;52.968;8.844;2022-08-24T10:53:20;42.20;28.00
20891;DHT22;10605;52.968;8.844;2022-08-24T10:56:05;42.20;28.10
20891;DHT22;10605;52.968;8.844;2022-08-24T11:01:29;42.00;27.60
20891;DHT22;10605;52.968;8.844;2022-08-24T11:04:25;42.60;26.60
20891;DHT22;10605;52.968;8.844;2022-08-24T11:12:42;43.00;24.40
20891;DHT22;10605;52.968;8.844;2022-08-24T11:17:54;41.70;26.80
20891;DHT22;10605;52.968;8.844;2022-08-24T11:20:30;42.80;24.80
20891;DHT22;10605;52.968;8.844;2022-08-24T11:23:15;42.20;24.80
20891;DHT22;10605;52.968;8.844;2022-08-24T11:28:36;41.50;25.00
20891;DHT22;10605;52.968;8.844;2022-08-24T11:31:31;43.00;26.10
20891;DHT22;10605;52.968;8.844;2022-08-24T11:34:08;44.10;22.70
20891;DHT22;10605;52.968;8.844;2022-08-24T11:36:37;45.00;22.20
20891;DHT22;10605;52.968;8.844;2022-08-24T11:44:40;43.90;21.10
20891;DHT22;10605;52.968;8.844;2022-08-24T11:47:16;43.40;21.90
20891;DHT22;10605;52.968;8.844;2022-08-24T11:50:08;43.30;21.40
20891;DHT22;10605;52.968;8.844;2022-08-24T12:12:21;43.60;19.40
20891;DHT22;10605;52.968;8.844;2022-08-24T12:15:01;44.00;20.10
20891;DHT22;10605;52.968;8.844;2022-08-24T12:17:38;44.80;19.50
20891;DHT22;10605;52.968;8.844;2022-08-24T12:20:28;44.70;19.80
20891;DHT22;10605;52.968;8.844;2022-08-24T12:23:01;44.50;18.90
20891;DHT22;10605;52.968;8.844;2022-08-24T12:25:30;44.80;19.10
20891;DHT22;10605;52.968;8.844;2022-08-24T12:28:23;44.60;19.00
20891;DHT22;10605;52.968;8.844;2022-08-24T12:30:52;43.30;19.20
20891;DHT22;10605;52.968;8.844;2022-08-24T12:33:32;43.60;19.20
20891;DHT22;10605;52.968;8.844;2022-08-24T12:36:03;43.90;19.30
20891;DHT22;10605;52.968;8.844;2022-08-24T12:39:13;43.90;19.30
20891;DHT22;10605;52.968;8.844;2022-08-24T12:44:16;43.60;19.90
20891;DHT22;10605;52.968;8.844;2022-08-24T12:46:51;44.60;19.00
20891;DHT22;10605;52.968;8.844;2022-08-24T12:49:24;45.30;18.20
20891;DHT22;10605;52.968;8.844;2022-08-24T12:52:13;43.80;18.40
20891;DHT22;10605;52.968;8.844;2022-08-24T12:55:24;43.90;18.70
20891;DHT22;10605;52.968;8.844;2022-08-24T12:58:07;43.50;18.90
20891;DHT22;10605;52.968;8.844;2022-08-24T13:00:38;42.40;19.80
20891;DHT22;10605;52.968;8.844;2022-08-24T13:03:08;41.70;20.10
20891;DHT22;10605;52.968;8.844;2022-08-24T13:05:52;42.90;20.00
20891;DHT22;10605;52.968;8.844;2022-08-24T13:08:41;42.10;19.80
20891;DHT22;10605;52.968;8.844;2022-08-24T13:11:28;41.00;22.00
20891;DHT22;10605;52.968;8.844;2022-08-24T13:24:47;34.00;30.30
20891;DHT22;10605;52.968;8.844;2022-08-24T13:29:53;33.40;31.70
20891;DHT22;10605;52.968;8.844;2022-08-24T13:32:34;33.20;33.30
20891;DHT22;10605;52.968;8.844;2022-08-24T13:35:35;32.90;33.00
20891;DHT22;10605;52.968;8.844;2022-08-24T13:57:51;32.40;33.80
20891;DHT22;10605;52.968;8.844;2022-08-24T14:05:50;32.20;34.30
20891;DHT22;10605;52.968;8.844;2022-08-24T14:14:22;32.30;34.50
20891;DHT22;10605;52.968;8.844;2022-08-24T14:25:35;32.30;33.80
20891;DHT22;10605;52.968;8.844;2022-08-24T14:31:16;32.10;34.00
20891;DHT22;10605;52.968;8.844;2022-08-24T14:42:16;31.60;35.20
20891;DHT22;10605;52.968;8.844;2022-08-24T14:53:54;31.90;33.60
20891;DHT22;10605;52.968;8.844;2022-08-24T14:59:21;32.50;34.10
20891;DHT22;10605;52.968;8.844;2022-08-24T15:05:05;32.70;33.60
20891;DHT22;10605;52.968;8.844;2022-08-24T15:07:36;32.70;32.90
20891;DHT22;10605;52.968;8.844;2022-08-24T15:10:12;32.70;32.70
20891;DHT22;10605;52.968;8.844;2022-08-24T15:13:00;32.70;33.40
20891;DHT22;10605;52.968;8.844;2022-08-24T15:15:52;32.80;33.60
20891;DHT22;10605;52.968;8.844;2022-08-24T15:18:44;32.90;32.90
20891;DHT22;10605;52.968;8.844;2022-08-24T15:28:58;32.90;33.10
20891;DHT22;10605;52.968;8.844;2022-08-24T15:31:33;32.70;34.60
20891;DHT22;10605;52.968;8.844;2022-08-24T15:34:01;32.90;33.10
20891;DHT22;10605;52.968;8.844;2022-08-24T15:36:29;32.90;32.30
20891;DHT22;10605;52.968;8.844;2022-08-24T15:38:58;32.70;32.70
20891;DHT22;10605;52.968;8.844;2022-08-24T15:46:52;32.10;34.80
20891;DHT22;10605;52.968;8.844;2022-08-24T15:49:44;32.10;33.50
20891;DHT22;10605;52.968;8.844;2022-08-24T15:55:04;31.90;34.20
20891;DHT22;10605;52.968;8.844;2022-08-24T15:57:40;31.70;34.60
20891;DHT22;10605;52.968;8.844;2022-08-24T16:02:38;31.20;35.40
20891;DHT22;10605;52.968;8.844;2022-08-24T16:05:36;31.10;35.40
20891;DHT22;10605;52.968;8.844;2022-08-24T16:13:20;30.80;36.00
20891;DHT22;10605;52.968;8.844;2022-08-24T16:16:04;30.70;36.40
20891;DHT22;10605;52.968;8.844;2022-08-24T16:18:51;30.60;36.80
20891;DHT22;10605;52.968;8.844;2022-08-24T16:24:13;30.40;36.90
20891;DHT22;10605;52.968;8.844;2022-08-24T16:34:51;30.30;38.10
20891;DHT22;10605;52.968;8.844;2022-08-24T16:37:18;30.40;38.40
20891;DHT22;10605;52.968;8.844;2022-08-24T16:39:45;30.30;38.00
20891;DHT22;10605;52.968;8.844;2022-08-24T16:42:21;30.20;38.30
20891;DHT22;10605;52.968;8.844;2022-08-24T16:44:48;30.10;38.60
20891;DHT22;10605;52.968;8.844;2022-08-24T16:47:14;30.00;38.60
20891;DHT22;10605;52.968;8.844;2022-08-24T16:49:40;30.10;38.90
20891;DHT22;10605;52.968;8.844;2022-08-24T16:52:07;30.00;39.60
20891;DHT22;10605;52.968;8.844;2022-08-24T16:54:33;29.90;39.10
20891;DHT22;10605;52.968;8.844;2022-08-24T16:57:04;29.80;39.30
20891;DHT22;10605;52.968;8.844;2022-08-24T16:59:32;29.80;39.40
20891;DHT22;10605;52.968;8.844;2022-08-24T17:01:59;29.80;39.40
20891;DHT22;10605;52.968;8.844;2022-08-24T17:04:25;29.80;39.60
20891;DHT22;10605;52.968;8.844;2022-08-24T17:06:52;29.70;40.10
20891;DHT22;10605;52.968;8.844;2022-08-24T17:09:18;29.60;39.80
20891;DHT22;10605;52.968;8.844;2022-08-24T17:11:44;29.60;39.90
20891;DHT22;10605;52.968;8.844;2022-08-24T17:14:12;29.60;40.20
20891;DHT22;10605;52.968;8.844;2022-08-24T17:16:38;29.50;40.60
20891;DHT22;10605;52.968;8.844;2022-08-24T17:19:08;29.40;40.90
20891;DHT22;10605;52.968;8.844;2022-08-24T17:21:37;29.40;41.20
20891;DHT22;10605;52.968;8.844;2022-08-24T17:24:05;29.30;41.70
20891;DHT22;10605;52.968;8.844;2022-08-24T17:26:32;29.30;41.70
20891;DHT22;10605;52.968;8.844;2022-08-24T17:28:58;29.20;42.20
20891;DHT22;10605;52.968;8.844;2022-08-24T17:31:26;29.10;42.40
20891;DHT22;10605;52.968;8.844;2022-08-24T17:33:55;29.10;42.50
20891;DHT22;10605;52.968;8.844;2022-08-24T17:36:22;29.00;43.00
20891;DHT22;10605;52.968;8.844;2022-08-24T17:38:50;29.00;43.70
20891;DHT22;10605;52.968;8.844;2022-08-24T17:41:16;28.90;43.50
20891;DHT22;10605;52.968;8.844;2022-08-24T17:43:42;28.80;43.70
20891;DHT22;10605;52.968;8.844;2022-08-24T17:46:11;28.70;44.10
20891;DHT22;10605;52.968;8.844;2022-08-24T17:48:39;28.60;44.30
20891;DHT22;10605;52.968;8.844;2022-08-24T17:51:07;28.50;44.90
20891;DHT22;10605;52.968;8.844;2022-08-24T17:53:32;28.40;45.20
20891;DHT22;10605;52.968;8.844;2022-08-24T17:56:01;28.30;45.70
20891;DHT22;10605;52.968;8.844;2022-08-24T17:58:27;28.20;46.20
20891;DHT22;10605;52.968;8.844;2022-08-24T18:00:53;28.10;46.50
20891;DHT22;10605;52.968;8.844;2022-08-24T18:03:19;28.00;47.00
20891;DHT22;10605;52.968;8.844;2022-08-24T18:05:45;27.90;47.50
20891;DHT22;10605;52.968;8.844;2022-08-24T18:08:11;27.80;47.50
20891;DHT22;10605;52.968;8.844;2022-08-24T18:10:37;27.70;48.10
20891;DHT22;10605;52.968;8.844;2022-08-24T18:13:03;27.60;48.70
20891;DHT22;10605;52.968;8.844;2022-08-24T18:15:31;27.50;49.10
20891;DHT22;10605;52.968;8.844;2022-08-24T18:17:58;27.20;50.20
20891;DHT22;10605;52.968;8.844;2022-08-24T18:20:28;27.10;50.70
20891;DHT22;10605;52.968;8.844;2022-08-24T18:22:57;26.80;51.90
20891;DHT22;10605;52.968;8.844;2022-08-24T18:25:23;26.70;53.10
20891;DHT22;10605;52.968;8.844;2022-08-24T18:27:52;26.70;53.00
20891;DHT22;10605;52.968;8.844;2022-08-24T18:30:29;26.40;54.00
20891;DHT22;10605;52.968;8.844;2022-08-24T18:32:56;26.40;54.10
20891;DHT22;10605;52.968;8.844;2022-08-24T18:35:22;26.20;54.50
20891;DHT22;10605;52.968;8.844;2022-08-24T18:37:47;26.00;55.30
20891;DHT22;10605;52.968;8.844;2022-08-24T18:40:14;26.00;56.10
20891;DHT22;10605;52.968;8.844;2022-08-24T18:42:41;26.00;56.60
20891;DHT22;10605;52.968;8.844;2022-08-24T18:45:08;26.00;57.20
20891;DHT22;10605;52.968;8.844;2022-08-24T18:47:36;26.00;57.60
20891;DHT22;10605;52.968;8.844;2022-08-24T18:50:03;26.10;57.90
20891;DHT22;10605;52.968;8.844;2022-08-24T18:52:29;26.10;58.00
20891;DHT22;10605;52.968;8.844;2022-08-24T18:54:58;26.10;57.90
20891;DHT22;10605;52.968;8.844;2022-08-24T18:57:23;26.10;58.20
20891;DHT22;10605;52.968;8.844;2022-08-24T18:59:49;26.10;58.20
20891;DHT22;10605;52.968;8.844;2022-08-24T19:02:18;26.00;58.80
20891;DHT22;10605;52.968;8.844;2022-08-24T19:05:07;26.00;58.80
20891;DHT22;10605;52.968;8.844;2022-08-24T19:07:40;25.90;59.00
20891;DHT22;10605;52.968;8.844;2022-08-24T19:10:07;25.80;59.30
20891;DHT22;10605;52.968;8.844;2022-08-24T19:12:37;25.80;59.60
20891;DHT22;10605;52.968;8.844;2022-08-24T19:15:04;25.70;59.70
20891;DHT22;10605;52.968;8.844;2022-08-24T19:17:30;25.70;60.00
20891;DHT22;10605;52.968;8.844;2022-08-24T19:19:56;25.70;60.10
20891;DHT22;10605;52.968;8.844;2022-08-24T19:22:22;25.60;60.50
20891;DHT22;10605;52.968;8.844;2022-08-24T19:24:48;25.50;60.80
20891;DHT22;10605;52.968;8.844;2022-08-24T19:27:14;25.40;61.40
20891;DHT22;10605;52.968;8.844;2022-08-24T19:29:40;25.30;61.70
20891;DHT22;10605;52.968;8.844;2022-08-24T19:32:06;25.20;62.20
20891;DHT22;10605;52.968;8.844;2022-08-24T19:34:33;25.10;62.70
20891;DHT22;10605;52.968;8.844;2022-08-24T19:36:59;25.00;63.20
20891;DHT22;10605;52.968;8.844;2022-08-24T19:39:24;25.00;64.00
20891;DHT22;10605;52.968;8.844;2022-08-24T19:41:50;24.90;64.00
20891;DHT22;10605;52.968;8.844;2022-08-24T19:44:18;24.90;63.80
20891;DHT22;10605;52.968;8.844;2022-08-24T19:47:04;25.00;63.70